sensor_id;sensor_type;location;lat;lon;timestamp;P1;durP1;ratioP1;P2;durP2;ratioP2
4833;SDS011;12895;51.064;7.028;2023-08-31T00:00:13;9.53;;;5.67;;
4833;SDS011;12895;51.064;7.028;2023-08-31T00:03:00;7.57;;;6.30;;
4833;SDS011;12895;51.064;7.028;2023-08-31T00:05:45;8.83;;;5.93;;
4833;SDS011;12895;51.064;7.028;2023-08-31T00:08:33;6.23;;;5.63;;
4833;SDS011;12895;51.064;7.028;2023-08-31T00:11:19;6.20;;;5.60;;
4833;SDS011;12895;51.064;7.028;2023-08-31T00:14:05;11.40;;;6.87;;
4833;SDS011;12895;51.064;7.028;2023-08-31T00:16:51;7.10;;;6.40;;
4833;SDS011;12895;51.064;7.028;2023-08-31T00:19:37;5.80;;;5.40;;
4833;SDS011;12895;51.064;7.028;2023-08-31T00:22:22;7.40;;;5.33;;
4833;SDS011;12895;51.064;7.028;2023-08-31T00:25:08;7.10;;;6.40;;
4833;SDS011;12895;51.064;7.028;2023-08-31T00:27:53;6.17;;;5.67;;
4833;SDS011;12895;51.064;7.028;2023-08-31T00:30:39;6.80;;;6.10;;
4833;SDS011;12895;51.064;7.028;2023-08-31T00:33:27;6.97;;;5.80;;
4833;SDS011;12895;51.064;7.028;2023-08-31T00:36:12;8.27;;;6.50;;
4833;SDS011;12895;51.064;7.028;2023-08-31T00:38:57;12.60;;;6.33;;
4833;SDS011;12895;51.064;7.028;2023-08-31T00:41:42;6.90;;;6.30;;
4833;SDS011;12895;51.064;7.028;2023-08-31T00:44:29;6.80;;;6.20;;
4833;SDS011;12895;51.064;7.028;2023-08-31T00:47:15;9.57;;;6.40;;
4833;SDS011;12895;51.064;7.028;2023-08-31T00:50:02;10.20;;;6.57;;
4833;SDS011;12895;51.064;7.028;2023-08-31T00:52:48;8.63;;;7.00;;
4833;SDS011;12895;51.064;7.028;2023-08-31T00:55:33;9.30;;;6.33;;
4833;SDS011;12895;51.064;7.028;2023-08-31T00:58:19;6.67;;;6.17;;
4833;SDS011;12895;51.064;7.028;2023-08-31T01:01:06;10.40;;;6.77;;
4833;SDS011;12895;51.064;7.028;2023-08-31T01:03:58;8.87;;;6.80;;
4833;SDS011;12895;51.064;7.028;2023-08-31T01:07:00;7.80;;;6.43;;
4833;SDS011;12895;51.064;7.028;2023-08-31T01:09:55;8.20;;;7.40;;
4833;SDS011;12895;51.064;7.028;2023-08-31T01:12:50;8.60;;;6.57;;
4833;SDS011;12895;51.064;7.028;2023-08-31T01:15:39;9.50;;;7.13;;
4833;SDS011;12895;51.064;7.028;2023-08-31T01:18:29;10.00;;;7.20;;
4833;SDS011;12895;51.064;7.028;2023-08-31T01:21:20;9.70;;;7.50;;
4833;SDS011;12895;51.064;7.028;2023-08-31T01:24:11;10.43;;;6.77;;
4833;SDS011;12895;51.064;7.028;2023-08-31T01:26:57;8.40;;;7.70;;
4833;SDS011;12895;51.064;7.028;2023-08-31T01:29:43;8.67;;;7.87;;
4833;SDS011;12895;51.064;7.028;2023-08-31T01:32:28;9.17;;;8.27;;
4833;SDS011;12895;51.064;7.028;2023-08-31T01:35:14;9.33;;;8.53;;
4833;SDS011;12895;51.064;7.028;2023-08-31T01:38:06;9.93;;;8.60;;
4833;SDS011;12895;51.064;7.028;2023-08-31T01:40:56;9.83;;;8.83;;
4833;SDS011;12895;51.064;7.028;2023-08-31T01:43:47;15.00;;;8.77;;
4833;SDS011;12895;51.064;7.028;2023-08-31T01:46:34;12.73;;;8.77;;
4833;SDS011;12895;51.064;7.028;2023-08-31T01:49:20;10.80;;;8.43;;
4833;SDS011;12895;51.064;7.028;2023-08-31T01:52:07;11.03;;;8.93;;
4833;SDS011;12895;51.064;7.028;2023-08-31T01:54:53;9.23;;;8.27;;
4833;SDS011;12895;51.064;7.028;2023-08-31T01:57:40;10.00;;;8.67;;
4833;SDS011;12895;51.064;7.028;2023-08-31T02:00:46;9.70;;;8.80;;
4833;SDS011;12895;51.064;7.028;2023-08-31T02:03:31;9.27;;;8.23;;
4833;SDS011;12895;51.064;7.028;2023-08-31T02:06:17;12.50;;;9.20;;
4833;SDS011;12895;51.064;7.028;2023-08-31T02:09:02;9.80;;;8.57;;
4833;SDS011;12895;51.064;7.028;2023-08-31T02:11:50;11.43;;;8.00;;
4833;SDS011;12895;51.064;7.028;2023-08-31T02:14:37;10.37;;;8.50;;
4833;SDS011;12895;51.064;7.028;2023-08-31T02:17:23;9.17;;;8.27;;
4833;SDS011;12895;51.064;7.028;2023-08-31T02:20:09;11.47;;;9.03;;
4833;SDS011;12895;51.064;7.028;2023-08-31T02:22:55;15.93;;;8.60;;
4833;SDS011;12895;51.064;7.028;2023-08-31T02:25:44;8.50;;;7.60;;
4833;SDS011;12895;51.064;7.028;2023-08-31T02:28:29;9.73;;;8.83;;
4833;SDS011;12895;51.064;7.028;2023-08-31T02:31:16;9.17;;;7.50;;
4833;SDS011;12895;51.064;7.028;2023-08-31T02:34:02;10.10;;;7.80;;
4833;SDS011;12895;51.064;7.028;2023-08-31T02:36:47;8.50;;;7.60;;
4833;SDS011;12895;51.064;7.028;2023-08-31T02:39:33;9.50;;;8.50;;
4833;SDS011;12895;51.064;7.028;2023-08-31T02:42:19;8.43;;;7.73;;
4833;SDS011;12895;51.064;7.028;2023-08-31T02:45:05;10.03;;;8.80;;
4833;SDS011;12895;51.064;7.028;2023-08-31T02:47:53;10.70;;;8.53;;
4833;SDS011;12895;51.064;7.028;2023-08-31T02:50:38;9.90;;;9.00;;
4833;SDS011;12895;51.064;7.028;2023-08-31T02:53:24;9.50;;;8.57;;
4833;SDS011;12895;51.064;7.028;2023-08-31T02:56:09;9.73;;;8.30;;
4833;SDS011;12895;51.064;7.028;2023-08-31T02:58:54;12.03;;;9.30;;
4833;SDS011;12895;51.064;7.028;2023-08-31T03:01:41;9.57;;;8.30;;
4833;SDS011;12895;51.064;7.028;2023-08-31T03:04:31;11.33;;;9.17;;
4833;SDS011;12895;51.064;7.028;2023-08-31T03:07:16;9.00;;;8.07;;
4833;SDS011;12895;51.064;7.028;2023-08-31T03:10:03;9.30;;;8.40;;
4833;SDS011;12895;51.064;7.028;2023-08-31T03:12:48;10.87;;;8.70;;
4833;SDS011;12895;51.064;7.028;2023-08-31T03:15:34;12.10;;;8.67;;
4833;SDS011;12895;51.064;7.028;2023-08-31T03:18:19;8.53;;;7.70;;
4833;SDS011;12895;51.064;7.028;2023-08-31T03:21:06;11.20;;;8.50;;
4833;SDS011;12895;51.064;7.028;2023-08-31T03:23:53;9.10;;;8.20;;
4833;SDS011;12895;51.064;7.028;2023-08-31T03:26:38;8.70;;;8.00;;
4833;SDS011;12895;51.064;7.028;2023-08-31T03:29:23;11.57;;;8.43;;
4833;SDS011;12895;51.064;7.028;2023-08-31T03:32:10;9.73;;;8.77;;
4833;SDS011;12895;51.064;7.028;2023-08-31T03:34:55;8.50;;;7.80;;
4833;SDS011;12895;51.064;7.028;2023-08-31T03:37:42;8.80;;;7.90;;
4833;SDS011;12895;51.064;7.028;2023-08-31T03:40:27;9.37;;;8.37;;
4833;SDS011;12895;51.064;7.028;2023-08-31T03:43:13;9.60;;;8.10;;
4833;SDS011;12895;51.064;7.028;2023-08-31T03:46:00;7.53;;;6.80;;
4833;SDS011;12895;51.064;7.028;2023-08-31T03:48:46;8.67;;;7.83;;
4833;SDS011;12895;51.064;7.028;2023-08-31T03:51:32;9.53;;;7.30;;
4833;SDS011;12895;51.064;7.028;2023-08-31T03:54:20;6.87;;;5.90;;
4833;SDS011;12895;51.064;7.028;2023-08-31T03:57:06;8.80;;;6.07;;
4833;SDS011;12895;51.064;7.028;2023-08-31T03:59:51;7.80;;;7.00;;
4833;SDS011;12895;51.064;7.028;2023-08-31T04:02:37;10.40;;;7.10;;
4833;SDS011;12895;51.064;7.028;2023-08-31T04:05:24;7.73;;;6.37;;
4833;SDS011;12895;51.064;7.028;2023-08-31T04:08:09;7.90;;;6.70;;
4833;SDS011;12895;51.064;7.028;2023-08-31T04:10:56;6.90;;;6.30;;
4833;SDS011;12895;51.064;7.028;2023-08-31T04:13:42;7.03;;;6.40;;
4833;SDS011;12895;51.064;7.028;2023-08-31T04:16:27;7.63;;;6.93;;
4833;SDS011;12895;51.064;7.028;2023-08-31T04:19:13;6.53;;;5.87;;
4833;SDS011;12895;51.064;7.028;2023-08-31T04:21:58;7.37;;;6.57;;
4833;SDS011;12895;51.064;7.028;2023-08-31T04:24:43;7.03;;;6.40;;
4833;SDS011;12895;51.064;7.028;2023-08-31T04:27:31;9.60;;;6.47;;
4833;SDS011;12895;51.064;7.028;2023-08-31T04:30:16;7.07;;;6.37;;
4833;SDS011;12895;51.064;7.028;2023-08-31T04:33:01;7.67;;;6.80;;
4833;SDS011;12895;51.064;7.028;2023-08-31T04:35:50;7.90;;;7.10;;
4833;SDS011;12895;51.064;7.028;2023-08-31T04:38:35;8.53;;;6.90;;
4833;SDS011;12895;51.064;7.028;2023-08-31T04:41:22;6.73;;;6.10;;
4833;SDS011;12895;51.064;7.028;2023-08-31T04:44:09;8.33;;;7.63;;
4833;SDS011;12895;51.064;7.028;2023-08-31T04:46:56;8.83;;;7.53;;
4833;SDS011;12895;51.064;7.028;2023-08-31T04:49:41;8.40;;;7.37;;
4833;SDS011;12895;51.064;7.028;2023-08-31T04:52:26;9.43;;;6.70;;
4833;SDS011;12895;51.064;7.028;2023-08-31T04:55:12;8.47;;;7.67;;
4833;SDS011;12895;51.064;7.028;2023-08-31T04:57:58;9.60;;;7.10;;
4833;SDS011;12895;51.064;7.028;2023-08-31T05:00:45;8.70;;;7.80;;
4833;SDS011;12895;51.064;7.028;2023-08-31T05:03:31;8.73;;;7.20;;
4833;SDS011;12895;51.064;7.028;2023-08-31T05:06:16;8.13;;;7.33;;
4833;SDS011;12895;51.064;7.028;2023-08-31T05:09:01;8.73;;;7.93;;
4833;SDS011;12895;51.064;7.028;2023-08-31T05:11:47;8.47;;;7.67;;
4833;SDS011;12895;51.064;7.028;2023-08-31T05:14:32;8.63;;;7.37;;
4833;SDS011;12895;51.064;7.028;2023-08-31T05:17:22;10.83;;;8.47;;
4833;SDS011;12895;51.064;7.028;2023-08-31T05:20:08;9.50;;;8.30;;
4833;SDS011;12895;51.064;7.028;2023-08-31T05:22:54;8.40;;;7.37;;
4833;SDS011;12895;51.064;7.028;2023-08-31T05:25:41;10.93;;;8.33;;
4833;SDS011;12895;51.064;7.028;2023-08-31T05:28:27;13.33;;;8.33;;
4833;SDS011;12895;51.064;7.028;2023-08-31T05:31:45;11.27;;;9.60;;
4833;SDS011;12895;51.064;7.028;2023-08-31T05:34:22;11.70;;;9.13;;
4833;SDS011;12895;51.064;7.028;2023-08-31T05:37:09;12.13;;;8.97;;
4833;SDS011;12895;51.064;7.028;2023-08-31T05:39:56;10.10;;;8.50;;
4833;SDS011;12895;51.064;7.028;2023-08-31T05:42:43;9.70;;;8.40;;
4833;SDS011;12895;51.064;7.028;2023-08-31T05:45:33;9.83;;;8.77;;
4833;SDS011;12895;51.064;7.028;2023-08-31T05:48:19;9.63;;;8.83;;
4833;SDS011;12895;51.064;7.028;2023-08-31T05:51:06;10.27;;;8.57;;
4833;SDS011;12895;51.064;7.028;2023-08-31T05:53:51;9.20;;;8.30;;
4833;SDS011;12895;51.064;7.028;2023-08-31T05:56:37;10.00;;;9.00;;
4833;SDS011;12895;51.064;7.028;2023-08-31T05:59:23;10.03;;;8.10;;
4833;SDS011;12895;51.064;7.028;2023-08-31T06:02:09;10.67;;;9.53;;
4833;SDS011;12895;51.064;7.028;2023-08-31T06:04:54;9.23;;;8.23;;
4833;SDS011;12895;51.064;7.028;2023-08-31T06:07:41;11.10;;;9.37;;
4833;SDS011;12895;51.064;7.028;2023-08-31T06:10:26;8.63;;;7.80;;
4833;SDS011;12895;51.064;7.028;2023-08-31T06:13:13;11.23;;;9.13;;
4833;SDS011;12895;51.064;7.028;2023-08-31T06:15:58;10.30;;;8.70;;
4833;SDS011;12895;51.064;7.028;2023-08-31T06:18:43;10.70;;;9.60;;
4833;SDS011;12895;51.064;7.028;2023-08-31T06:21:29;9.33;;;8.53;;
4833;SDS011;12895;51.064;7.028;2023-08-31T06:24:15;11.60;;;9.30;;
4833;SDS011;12895;51.064;7.028;2023-08-31T06:27:01;9.00;;;8.20;;
4833;SDS011;12895;51.064;7.028;2023-08-31T06:29:47;13.30;;;9.83;;
4833;SDS011;12895;51.064;7.028;2023-08-31T06:32:32;13.00;;;9.70;;
4833;SDS011;12895;51.064;7.028;2023-08-31T06:35:18;12.20;;;9.63;;
4833;SDS011;12895;51.064;7.028;2023-08-31T06:38:03;13.83;;;10.10;;
4833;SDS011;12895;51.064;7.028;2023-08-31T06:40:50;7.60;;;6.90;;
4833;SDS011;12895;51.064;7.028;2023-08-31T06:43:38;7.73;;;6.93;;
4833;SDS011;12895;51.064;7.028;2023-08-31T06:46:23;8.53;;;7.00;;
4833;SDS011;12895;51.064;7.028;2023-08-31T06:49:09;12.30;;;7.13;;
4833;SDS011;12895;51.064;7.028;2023-08-31T06:51:55;6.80;;;6.20;;
4833;SDS011;12895;51.064;7.028;2023-08-31T06:54:40;11.23;;;7.60;;
4833;SDS011;12895;51.064;7.028;2023-08-31T06:57:27;9.67;;;8.67;;
4833;SDS011;12895;51.064;7.028;2023-08-31T07:00:12;8.03;;;7.33;;
4833;SDS011;12895;51.064;7.028;2023-08-31T07:02:58;10.67;;;9.40;;
4833;SDS011;12895;51.064;7.028;2023-08-31T07:05:44;10.67;;;6.93;;
4833;SDS011;12895;51.064;7.028;2023-08-31T07:08:29;11.10;;;7.83;;
4833;SDS011;12895;51.064;7.028;2023-08-31T07:11:15;9.50;;;7.23;;
4833;SDS011;12895;51.064;7.028;2023-08-31T07:14:02;7.97;;;6.83;;
4833;SDS011;12895;51.064;7.028;2023-08-31T07:16:48;9.47;;;6.37;;
4833;SDS011;12895;51.064;7.028;2023-08-31T07:19:35;10.37;;;6.43;;
4833;SDS011;12895;51.064;7.028;2023-08-31T07:22:21;7.00;;;5.30;;
4833;SDS011;12895;51.064;7.028;2023-08-31T07:25:07;7.10;;;6.37;;
4833;SDS011;12895;51.064;7.028;2023-08-31T07:27:53;8.00;;;6.43;;
4833;SDS011;12895;51.064;7.028;2023-08-31T07:30:40;7.17;;;6.10;;
4833;SDS011;12895;51.064;7.028;2023-08-31T07:33:26;6.73;;;6.10;;
4833;SDS011;12895;51.064;7.028;2023-08-31T07:36:11;7.40;;;5.70;;
4833;SDS011;12895;51.064;7.028;2023-08-31T07:38:57;5.10;;;4.00;;
4833;SDS011;12895;51.064;7.028;2023-08-31T07:41:42;4.73;;;4.23;;
4833;SDS011;12895;51.064;7.028;2023-08-31T07:44:28;4.20;;;3.60;;
4833;SDS011;12895;51.064;7.028;2023-08-31T07:47:15;3.70;;;3.40;;
4833;SDS011;12895;51.064;7.028;2023-08-31T07:50:00;7.90;;;4.07;;
4833;SDS011;12895;51.064;7.028;2023-08-31T07:52:46;6.37;;;4.27;;
4833;SDS011;12895;51.064;7.028;2023-08-31T07:55:31;7.20;;;3.47;;
4833;SDS011;12895;51.064;7.028;2023-08-31T07:58:16;6.97;;;3.50;;
4833;SDS011;12895;51.064;7.028;2023-08-31T08:01:01;4.60;;;3.60;;
4833;SDS011;12895;51.064;7.028;2023-08-31T08:03:50;6.80;;;4.00;;
4833;SDS011;12895;51.064;7.028;2023-08-31T08:06:35;9.70;;;5.60;;
4833;SDS011;12895;51.064;7.028;2023-08-31T08:09:20;4.90;;;3.40;;
4833;SDS011;12895;51.064;7.028;2023-08-31T08:12:06;5.70;;;4.20;;
4833;SDS011;12895;51.064;7.028;2023-08-31T08:14:52;4.10;;;3.23;;
4833;SDS011;12895;51.064;7.028;2023-08-31T08:17:38;6.50;;;4.20;;
4833;SDS011;12895;51.064;7.028;2023-08-31T08:20:24;7.63;;;3.80;;
4833;SDS011;12895;51.064;7.028;2023-08-31T08:23:10;5.00;;;3.30;;
4833;SDS011;12895;51.064;7.028;2023-08-31T08:25:55;5.73;;;3.07;;
4833;SDS011;12895;51.064;7.028;2023-08-31T08:28:43;3.87;;;3.03;;
4833;SDS011;12895;51.064;7.028;2023-08-31T08:31:29;9.10;;;3.60;;
4833;SDS011;12895;51.064;7.028;2023-08-31T08:34:15;4.90;;;3.10;;
4833;SDS011;12895;51.064;7.028;2023-08-31T08:37:02;7.37;;;4.00;;
4833;SDS011;12895;51.064;7.028;2023-08-31T08:39:48;5.03;;;3.50;;
4833;SDS011;12895;51.064;7.028;2023-08-31T08:42:37;5.07;;;3.30;;
4833;SDS011;12895;51.064;7.028;2023-08-31T08:45:25;4.57;;;3.23;;
4833;SDS011;12895;51.064;7.028;2023-08-31T08:48:15;3.97;;;3.07;;
4833;SDS011;12895;51.064;7.028;2023-08-31T08:51:02;11.70;;;3.70;;
4833;SDS011;12895;51.064;7.028;2023-08-31T08:53:50;6.23;;;5.00;;
4833;SDS011;12895;51.064;7.028;2023-08-31T08:56:36;5.23;;;3.03;;
4833;SDS011;12895;51.064;7.028;2023-08-31T08:59:21;6.60;;;2.57;;
4833;SDS011;12895;51.064;7.028;2023-08-31T09:02:08;3.40;;;3.10;;
4833;SDS011;12895;51.064;7.028;2023-08-31T09:04:54;6.23;;;3.90;;
4833;SDS011;12895;51.064;7.028;2023-08-31T09:10:48;7.87;;;3.50;;
4833;SDS011;12895;51.064;7.028;2023-08-31T09:13:33;3.07;;;2.83;;
4833;SDS011;12895;51.064;7.028;2023-08-31T09:16:25;4.57;;;3.07;;
4833;SDS011;12895;51.064;7.028;2023-08-31T09:19:18;5.77;;;3.50;;
4833;SDS011;12895;51.064;7.028;2023-08-31T09:22:05;4.43;;;2.87;;
4833;SDS011;12895;51.064;7.028;2023-08-31T09:24:50;3.90;;;3.03;;
4833;SDS011;12895;51.064;7.028;2023-08-31T09:27:37;8.40;;;4.77;;
4833;SDS011;12895;51.064;7.028;2023-08-31T09:30:24;5.70;;;3.63;;
4833;SDS011;12895;51.064;7.028;2023-08-31T09:33:09;4.87;;;3.23;;
4833;SDS011;12895;51.064;7.028;2023-08-31T09:36:00;6.20;;;2.80;;
4833;SDS011;12895;51.064;7.028;2023-08-31T09:38:48;4.80;;;3.07;;
4833;SDS011;12895;51.064;7.028;2023-08-31T09:41:33;3.40;;;2.67;;
4833;SDS011;12895;51.064;7.028;2023-08-31T09:44:20;3.80;;;3.23;;
4833;SDS011;12895;51.064;7.028;2023-08-31T09:47:06;4.33;;;2.70;;
4833;SDS011;12895;51.064;7.028;2023-08-31T09:49:52;7.00;;;2.47;;
4833;SDS011;12895;51.064;7.028;2023-08-31T09:52:38;5.33;;;2.33;;
4833;SDS011;12895;51.064;7.028;2023-08-31T09:55:25;10.23;;;3.50;;
4833;SDS011;12895;51.064;7.028;2023-08-31T09:58:13;5.30;;;2.73;;
4833;SDS011;12895;51.064;7.028;2023-08-31T10:01:03;7.00;;;4.00;;
4833;SDS011;12895;51.064;7.028;2023-08-31T10:03:50;3.70;;;2.70;;
4833;SDS011;12895;51.064;7.028;2023-08-31T10:06:36;4.17;;;2.73;;
4833;SDS011;12895;51.064;7.028;2023-08-31T10:09:24;2.83;;;2.13;;
4833;SDS011;12895;51.064;7.028;2023-08-31T10:12:09;5.47;;;3.07;;
4833;SDS011;12895;51.064;7.028;2023-08-31T10:14:55;4.37;;;3.00;;
4833;SDS011;12895;51.064;7.028;2023-08-31T10:17:43;5.77;;;2.70;;
4833;SDS011;12895;51.064;7.028;2023-08-31T10:20:30;7.07;;;3.30;;
4833;SDS011;12895;51.064;7.028;2023-08-31T10:23:17;3.47;;;2.67;;
4833;SDS011;12895;51.064;7.028;2023-08-31T10:26:03;4.53;;;4.10;;
4833;SDS011;12895;51.064;7.028;2023-08-31T10:28:48;2.87;;;2.67;;
4833;SDS011;12895;51.064;7.028;2023-08-31T10:31:33;5.37;;;2.67;;
4833;SDS011;12895;51.064;7.028;2023-08-31T10:34:20;3.00;;;2.30;;
4833;SDS011;12895;51.064;7.028;2023-08-31T10:37:19;5.37;;;2.77;;
4833;SDS011;12895;51.064;7.028;2023-08-31T10:40:06;5.80;;;3.00;;
4833;SDS011;12895;51.064;7.028;2023-08-31T10:43:13;3.70;;;2.60;;
4833;SDS011;12895;51.064;7.028;2023-08-31T10:45:59;4.10;;;2.97;;
4833;SDS011;12895;51.064;7.028;2023-08-31T10:48:51;5.47;;;2.47;;
4833;SDS011;12895;51.064;7.028;2023-08-31T10:51:39;2.60;;;2.40;;
4833;SDS011;12895;51.064;7.028;2023-08-31T10:54:26;5.30;;;2.70;;
4833;SDS011;12895;51.064;7.028;2023-08-31T10:57:15;4.03;;;3.23;;
4833;SDS011;12895;51.064;7.028;2023-08-31T11:00:01;3.70;;;2.90;;
4833;SDS011;12895;51.064;7.028;2023-08-31T11:02:46;6.00;;;2.70;;
4833;SDS011;12895;51.064;7.028;2023-08-31T11:05:32;4.67;;;2.70;;
4833;SDS011;12895;51.064;7.028;2023-08-31T11:08:21;7.60;;;3.37;;
4833;SDS011;12895;51.064;7.028;2023-08-31T11:11:07;5.33;;;2.53;;
4833;SDS011;12895;51.064;7.028;2023-08-31T11:13:56;4.43;;;2.30;;
4833;SDS011;12895;51.064;7.028;2023-08-31T11:16:42;4.57;;;2.83;;
4833;SDS011;12895;51.064;7.028;2023-08-31T11:19:28;3.33;;;2.80;;
4833;SDS011;12895;51.064;7.028;2023-08-31T11:22:13;3.87;;;2.70;;
4833;SDS011;12895;51.064;7.028;2023-08-31T11:25:00;5.67;;;2.43;;
4833;SDS011;12895;51.064;7.028;2023-08-31T11:27:53;3.00;;;2.70;;
4833;SDS011;12895;51.064;7.028;2023-08-31T11:30:39;4.60;;;2.77;;
4833;SDS011;12895;51.064;7.028;2023-08-31T11:33:31;2.87;;;2.10;;
4833;SDS011;12895;51.064;7.028;2023-08-31T11:36:17;3.27;;;2.40;;
4833;SDS011;12895;51.064;7.028;2023-08-31T11:39:03;3.80;;;3.20;;
4833;SDS011;12895;51.064;7.028;2023-08-31T11:41:50;3.10;;;2.70;;
4833;SDS011;12895;51.064;7.028;2023-08-31T11:44:36;3.80;;;2.33;;
4833;SDS011;12895;51.064;7.028;2023-08-31T11:47:21;2.73;;;2.20;;
4833;SDS011;12895;51.064;7.028;2023-08-31T11:50:07;6.23;;;2.37;;
4833;SDS011;12895;51.064;7.028;2023-08-31T11:52:54;3.57;;;2.33;;
4833;SDS011;12895;51.064;7.028;2023-08-31T11:55:48;3.97;;;2.50;;
4833;SDS011;12895;51.064;7.028;2023-08-31T11:58:41;2.87;;;2.17;;
4833;SDS011;12895;51.064;7.028;2023-08-31T12:01:29;5.10;;;3.07;;
4833;SDS011;12895;51.064;7.028;2023-08-31T12:04:15;5.37;;;2.30;;
4833;SDS011;12895;51.064;7.028;2023-08-31T12:07:02;4.90;;;3.20;;
4833;SDS011;12895;51.064;7.028;2023-08-31T12:09:50;5.93;;;2.60;;
4833;SDS011;12895;51.064;7.028;2023-08-31T12:12:35;3.30;;;2.70;;
4833;SDS011;12895;51.064;7.028;2023-08-31T12:15:23;5.40;;;2.50;;
4833;SDS011;12895;51.064;7.028;2023-08-31T12:18:14;4.10;;;2.73;;
4833;SDS011;12895;51.064;7.028;2023-08-31T12:20:59;5.30;;;2.77;;
4833;SDS011;12895;51.064;7.028;2023-08-31T12:23:45;7.23;;;3.20;;
4833;SDS011;12895;51.064;7.028;2023-08-31T12:26:30;3.50;;;3.20;;
4833;SDS011;12895;51.064;7.028;2023-08-31T12:29:16;3.93;;;2.60;;
4833;SDS011;12895;51.064;7.028;2023-08-31T12:32:03;4.43;;;2.50;;
4833;SDS011;12895;51.064;7.028;2023-08-31T12:34:49;4.80;;;2.70;;
4833;SDS011;12895;51.064;7.028;2023-08-31T12:37:35;5.90;;;2.40;;
4833;SDS011;12895;51.064;7.028;2023-08-31T12:40:20;6.17;;;2.70;;
4833;SDS011;12895;51.064;7.028;2023-08-31T12:43:06;4.23;;;2.37;;
4833;SDS011;12895;51.064;7.028;2023-08-31T12:45:54;3.97;;;2.93;;
4833;SDS011;12895;51.064;7.028;2023-08-31T12:48:41;5.73;;;2.57;;
4833;SDS011;12895;51.064;7.028;2023-08-31T12:51:26;5.10;;;3.17;;
4833;SDS011;12895;51.064;7.028;2023-08-31T12:54:11;2.57;;;2.33;;
4833;SDS011;12895;51.064;7.028;2023-08-31T12:56:56;3.70;;;2.60;;
4833;SDS011;12895;51.064;7.028;2023-08-31T12:59:42;7.00;;;2.47;;
4833;SDS011;12895;51.064;7.028;2023-08-31T13:02:27;3.77;;;1.90;;
4833;SDS011;12895;51.064;7.028;2023-08-31T13:05:13;1.97;;;1.87;;
4833;SDS011;12895;51.064;7.028;2023-08-31T13:07:58;5.10;;;2.50;;
4833;SDS011;12895;51.064;7.028;2023-08-31T13:10:44;3.17;;;2.33;;
4833;SDS011;12895;51.064;7.028;2023-08-31T13:13:36;3.70;;;2.37;;
4833;SDS011;12895;51.064;7.028;2023-08-31T13:16:21;5.10;;;2.20;;
4833;SDS011;12895;51.064;7.028;2023-08-31T13:19:08;2.33;;;2.10;;
4833;SDS011;12895;51.064;7.028;2023-08-31T13:21:55;3.87;;;2.50;;
4833;SDS011;12895;51.064;7.028;2023-08-31T13:24:40;5.27;;;2.57;;
4833;SDS011;12895;51.064;7.028;2023-08-31T13:27:25;9.43;;;3.20;;
4833;SDS011;12895;51.064;7.028;2023-08-31T13:30:10;3.87;;;2.00;;
4833;SDS011;12895;51.064;7.028;2023-08-31T13:32:57;2.60;;;2.27;;
4833;SDS011;12895;51.064;7.028;2023-08-31T13:35:42;4.23;;;2.80;;
4833;SDS011;12895;51.064;7.028;2023-08-31T13:38:29;3.83;;;2.83;;
4833;SDS011;12895;51.064;7.028;2023-08-31T13:41:15;3.80;;;2.87;;
4833;SDS011;12895;51.064;7.028;2023-08-31T13:44:01;4.73;;;3.40;;
4833;SDS011;12895;51.064;7.028;2023-08-31T13:46:46;8.17;;;3.50;;
4833;SDS011;12895;51.064;7.028;2023-08-31T13:49:32;7.77;;;2.90;;
4833;SDS011;12895;51.064;7.028;2023-08-31T13:52:17;4.03;;;2.83;;
4833;SDS011;12895;51.064;7.028;2023-08-31T13:55:07;8.17;;;3.30;;
4833;SDS011;12895;51.064;7.028;2023-08-31T13:57:52;4.40;;;2.70;;
4833;SDS011;12895;51.064;7.028;2023-08-31T14:00:37;4.90;;;2.90;;
4833;SDS011;12895;51.064;7.028;2023-08-31T14:03:22;2.80;;;2.50;;
4833;SDS011;12895;51.064;7.028;2023-08-31T14:06:08;4.13;;;2.77;;
4833;SDS011;12895;51.064;7.028;2023-08-31T14:08:53;2.93;;;2.33;;
4833;SDS011;12895;51.064;7.028;2023-08-31T14:11:40;2.50;;;2.30;;
4833;SDS011;12895;51.064;7.028;2023-08-31T14:14:26;2.97;;;2.43;;
4833;SDS011;12895;51.064;7.028;2023-08-31T14:17:11;4.53;;;2.67;;
4833;SDS011;12895;51.064;7.028;2023-08-31T14:19:58;6.57;;;2.60;;
4833;SDS011;12895;51.064;7.028;2023-08-31T14:22:44;4.50;;;2.40;;
4833;SDS011;12895;51.064;7.028;2023-08-31T14:25:33;4.67;;;2.80;;
4833;SDS011;12895;51.064;7.028;2023-08-31T14:28:20;6.20;;;2.63;;
4833;SDS011;12895;51.064;7.028;2023-08-31T14:31:06;2.47;;;2.13;;
4833;SDS011;12895;51.064;7.028;2023-08-31T14:33:51;4.63;;;2.97;;
4833;SDS011;12895;51.064;7.028;2023-08-31T14:36:38;4.87;;;2.43;;
4833;SDS011;12895;51.064;7.028;2023-08-31T14:39:24;2.93;;;2.50;;
4833;SDS011;12895;51.064;7.028;2023-08-31T14:42:12;3.00;;;2.50;;
4833;SDS011;12895;51.064;7.028;2023-08-31T14:45:00;4.00;;;2.30;;
4833;SDS011;12895;51.064;7.028;2023-08-31T14:47:46;3.53;;;2.97;;
4833;SDS011;12895;51.064;7.028;2023-08-31T14:50:32;2.50;;;1.90;;
4833;SDS011;12895;51.064;7.028;2023-08-31T14:53:17;4.90;;;2.67;;
4833;SDS011;12895;51.064;7.028;2023-08-31T14:56:03;3.80;;;2.70;;
4833;SDS011;12895;51.064;7.028;2023-08-31T14:58:48;3.57;;;2.60;;
4833;SDS011;12895;51.064;7.028;2023-08-31T15:01:35;3.40;;;2.70;;
4833;SDS011;12895;51.064;7.028;2023-08-31T15:04:21;4.10;;;2.90;;
4833;SDS011;12895;51.064;7.028;2023-08-31T15:07:06;4.00;;;2.70;;
4833;SDS011;12895;51.064;7.028;2023-08-31T15:09:52;6.33;;;2.70;;
4833;SDS011;12895;51.064;7.028;2023-08-31T15:12:37;4.60;;;3.30;;
4833;SDS011;12895;51.064;7.028;2023-08-31T15:15:22;4.17;;;3.07;;
4833;SDS011;12895;51.064;7.028;2023-08-31T15:18:09;3.17;;;2.40;;
4833;SDS011;12895;51.064;7.028;2023-08-31T15:20:54;3.03;;;2.73;;
4833;SDS011;12895;51.064;7.028;2023-08-31T15:23:40;3.33;;;3.00;;
4833;SDS011;12895;51.064;7.028;2023-08-31T15:26:25;4.30;;;2.97;;
4833;SDS011;12895;51.064;7.028;2023-08-31T15:29:10;7.40;;;2.90;;
4833;SDS011;12895;51.064;7.028;2023-08-31T15:31:56;2.97;;;2.77;;
4833;SDS011;12895;51.064;7.028;2023-08-31T15:34:43;2.90;;;2.60;;
4833;SDS011;12895;51.064;7.028;2023-08-31T15:37:29;3.20;;;2.30;;
4833;SDS011;12895;51.064;7.028;2023-08-31T15:40:15;5.50;;;2.50;;
4833;SDS011;12895;51.064;7.028;2023-08-31T15:43:00;2.77;;;2.50;;
4833;SDS011;12895;51.064;7.028;2023-08-31T15:45:45;2.80;;;2.23;;
4833;SDS011;12895;51.064;7.028;2023-08-31T15:48:33;4.60;;;2.50;;
4833;SDS011;12895;51.064;7.028;2023-08-31T15:51:20;3.50;;;2.67;;
4833;SDS011;12895;51.064;7.028;2023-08-31T15:54:06;4.97;;;2.37;;
4833;SDS011;12895;51.064;7.028;2023-08-31T15:56:51;6.70;;;2.80;;
4833;SDS011;12895;51.064;7.028;2023-08-31T15:59:36;5.80;;;2.50;;
4833;SDS011;12895;51.064;7.028;2023-08-31T16:02:22;4.37;;;3.03;;
4833;SDS011;12895;51.064;7.028;2023-08-31T16:05:08;3.57;;;2.80;;
4833;SDS011;12895;51.064;7.028;2023-08-31T16:07:55;2.60;;;2.40;;
4833;SDS011;12895;51.064;7.028;2023-08-31T16:10:40;3.13;;;2.50;;
4833;SDS011;12895;51.064;7.028;2023-08-31T16:13:27;2.70;;;2.07;;
4833;SDS011;12895;51.064;7.028;2023-08-31T16:16:12;2.83;;;2.57;;
4833;SDS011;12895;51.064;7.028;2023-08-31T16:18:58;2.90;;;2.60;;
4833;SDS011;12895;51.064;7.028;2023-08-31T16:21:43;5.00;;;2.87;;
4833;SDS011;12895;51.064;7.028;2023-08-31T16:24:30;3.70;;;2.43;;
4833;SDS011;12895;51.064;7.028;2023-08-31T16:27:15;3.00;;;2.50;;
4833;SDS011;12895;51.064;7.028;2023-08-31T16:30:00;2.67;;;2.40;;
4833;SDS011;12895;51.064;7.028;2023-08-31T16:32:46;2.50;;;2.30;;
4833;SDS011;12895;51.064;7.028;2023-08-31T16:35:32;2.20;;;2.00;;
4833;SDS011;12895;51.064;7.028;2023-08-31T16:38:21;2.97;;;2.67;;
4833;SDS011;12895;51.064;7.028;2023-08-31T16:41:08;2.20;;;2.00;;
4833;SDS011;12895;51.064;7.028;2023-08-31T16:43:53;2.77;;;2.57;;
4833;SDS011;12895;51.064;7.028;2023-08-31T16:46:40;3.00;;;2.40;;
4833;SDS011;12895;51.064;7.028;2023-08-31T16:49:25;2.30;;;2.13;;
4833;SDS011;12895;51.064;7.028;2023-08-31T16:52:13;2.70;;;2.50;;
4833;SDS011;12895;51.064;7.028;2023-08-31T16:54:59;2.57;;;2.17;;
4833;SDS011;12895;51.064;7.028;2023-08-31T16:57:46;4.03;;;2.87;;
4833;SDS011;12895;51.064;7.028;2023-08-31T17:00:32;3.37;;;2.57;;